Time;durP1;ratioP1;P1;durP2;ratioP2;P2;SDS_P1;SDS_P2;PMS_P1;PMS_P2;Temp;Humidity;BMP_temperature;BMP_pressure;BME280_temperature;BME280_humidity;BME280_pressure;Samples;Min_cycle;Max_cycle;Signal;HPM_P1;HPM_P2
2023/03/06 00:01:17;;;;;;;46.85;42.50;;;7.70;99.90;;;;;;5206335;28;20045;-63
2023/03/06 00:03:48;;;;;;;50.30;45.33;;;7.80;99.90;;;;;;5206297;28;20079;-63
2023/03/06 00:06:18;;;;;;;50.40;45.40;;;7.40;99.90;;;;;;5206042;28;20167;-63
2023/03/06 00:08:49;;;;;;;49.88;45.33;;;7.60;99.90;;;;;;5205973;28;20040;-63
2023/03/06 00:11:20;;;;;;;53.92;48.72;;;7.00;99.90;;;;;;5205282;28;20017;-65
2023/03/06 00:13:52;;;;;;;53.13;48.05;;;7.00;99.90;;;;;;5205919;28;20116;-65
2023/03/06 00:16:23;;;;;;;52.15;47.05;;;7.40;99.90;;;;;;5206093;28;20128;-65
2023/03/06 00:18:54;;;;;;;52.25;47.45;;;7.30;99.90;;;;;;5206191;28;20082;-65
2023/03/06 00:21:25;;;;;;;54.67;49.35;;;7.20;99.90;;;;;;5204820;28;20100;-64
2023/03/06 00:23:56;;;;;;;53.20;48.35;;;7.20;99.90;;;;;;5206043;28;20048;-63
2023/03/06 00:26:27;;;;;;;50.85;45.92;;;7.50;99.90;;;;;;5205871;28;20474;-65
2023/03/06 00:28:58;;;;;;;50.40;45.42;;;7.20;99.90;;;;;;5205980;28;20507;-63
2023/03/06 00:31:29;;;;;;;52.50;47.58;;;6.90;99.90;;;;;;5205905;28;20040;-64
2023/03/06 00:34:00;;;;;;;53.40;48.65;;;7.30;99.90;;;;;;5205815;28;20025;-63
2023/03/06 00:36:30;;;;;;;52.47;47.58;;;7.30;99.90;;;;;;5205786;28;20032;-64
2023/03/06 00:39:01;;;;;;;54.80;49.88;;;7.30;99.90;;;;;;5204453;28;20029;-65
2023/03/06 00:41:32;;;;;;;53.55;48.42;;;7.30;99.90;;;;;;5205828;28;20377;-64
2023/03/06 00:44:03;;;;;;;52.50;47.40;;;7.00;99.90;;;;;;5205760;28;20037;-65
2023/03/06 00:46:34;;;;;;;55.40;50.20;;;7.10;99.90;;;;;;5205663;28;20033;-63
2023/03/06 00:49:05;;;;;;;52.05;47.38;;;7.00;99.90;;;;;;5205692;28;20026;-63
2023/03/06 00:51:36;;;;;;;52.72;48.28;;;6.90;99.90;;;;;;5205654;28;20056;-63
2023/03/06 00:54:07;;;;;;;76.18;68.47;;;6.60;99.90;;;;;;5205456;28;20075;-63
2023/03/06 00:56:38;;;;;;;66.72;60.53;;;6.60;99.90;;;;;;5205585;28;20404;-63
2023/03/06 00:59:10;;;;;;;60.03;54.25;;;6.40;99.90;;;;;;5205139;28;20045;-63
2023/03/06 01:01:40;;;;;;;58.45;53.15;;;6.60;99.90;;;;;;5205416;28;20040;-63
2023/03/06 01:04:12;;;;;;;55.53;50.60;;;6.10;99.90;;;;;;5205573;28;20018;-63
2023/03/06 01:06:43;;;;;;;53.65;48.70;;;6.20;99.90;;;;;;5205423;28;20044;-64
2023/03/06 01:09:13;;;;;;;62.03;56.53;;;6.30;99.90;;;;;;5205495;28;20021;-64
2023/03/06 01:11:44;;;;;;;57.53;52.25;;;6.20;99.90;;;;;;5204231;28;20045;-63
2023/03/06 01:14:17;;;;;;;59.15;53.88;;;6.40;99.90;;;;;;5205397;28;20373;-63
2023/03/06 01:16:48;;;;;;;59.35;53.70;;;6.40;99.90;;;;;;5205436;28;20034;-65
2023/03/06 01:19:19;;;;;;;57.67;52.28;;;6.20;99.90;;;;;;5205336;28;20029;-63
2023/03/06 01:21:50;;;;;;;61.35;55.80;;;6.20;99.90;;;;;;5207315;28;20373;-63
2023/03/06 01:24:22;;;;;;;58.78;53.22;;;6.20;99.90;;;;;;5209306;28;20025;-63
2023/03/06 01:26:53;;;;;;;59.08;53.58;;;6.20;99.90;;;;;;5209113;28;20055;-63
2023/03/06 01:29:25;;;;;;;56.88;51.78;;;6.10;99.90;;;;;;5209139;28;20025;-63
2023/03/06 01:31:56;;;;;;;58.45;53.35;;;6.20;99.90;;;;;;5209221;28;20363;-63
2023/03/06 01:34:26;;;;;;;60.85;55.22;;;6.30;99.90;;;;;;5209532;28;20079;-65
2023/03/06 01:36:57;;;;;;;57.67;52.17;;;6.10;99.90;;;;;;5209237;28;20049;-63
2023/03/06 01:39:30;;;;;;;59.72;54.33;;;6.30;99.90;;;;;;5207778;28;20443;-63
2023/03/06 01:42:01;;;;;;;56.75;51.58;;;6.10;99.90;;;;;;5208890;28;20373;-63
2023/03/06 01:44:32;;;;;;;59.45;53.90;;;6.50;99.90;;;;;;5209000;28;20029;-63
2023/03/06 01:47:03;;;;;;;56.97;51.83;;;6.10;99.90;;;;;;5208815;28;20120;-63
2023/03/06 01:49:37;;;;;;;54.25;49.30;;;5.90;99.90;;;;;;5208803;28;20096;-63
2023/03/06 01:52:13;;;;;;;54.67;49.95;;;6.00;99.90;;;;;;5208809;28;20485;-64
2023/03/06 01:54:49;;;;;;;52.58;47.40;;;6.00;99.90;;;;;;5208728;28;20044;-63
2023/03/06 01:57:25;;;;;;;54.20;49.15;;;6.20;99.90;;;;;;5208632;28;20029;-63
2023/03/06 02:00:20;;;;;;;55.40;50.53;;;6.30;99.90;;;;;;5208344;28;20045;-62
2023/03/06 02:03:13;;;;;;;55.58;50.75;;;6.60;99.90;;;;;;5208573;28;20030;-63
2023/03/06 02:05:45;;;;;;;56.40;51.35;;;6.50;99.90;;;;;;5207167;28;20061;-63
2023/03/06 02:08:19;;;;;;;52.45;48.10;;;6.70;99.90;;;;;;5208395;28;20117;-64
2023/03/06 02:11:16;;;;;;;53.53;48.92;;;6.60;99.90;;;;;;5208353;28;20618;-63
2023/03/06 02:13:48;;;;;;;54.42;49.95;;;6.50;99.90;;;;;;5208339;28;20084;-63
2023/03/06 02:16:25;;;;;;;53.17;48.75;;;6.50;99.90;;;;;;5208274;28;20028;-63
2023/03/06 02:18:57;;;;;;;53.22;48.83;;;6.50;99.90;;;;;;5208229;28;20018;-65
2023/03/06 02:21:33;;;;;;;57.13;51.58;;;6.50;99.90;;;;;;5208124;28;20071;-63
2023/03/06 02:24:31;;;;;;;53.05;48.17;;;6.20;99.90;;;;;;5208067;28;20028;-63
2023/03/06 02:27:04;;;;;;;52.22;47.60;;;6.50;99.90;;;;;;5208095;28;20029;-64
2023/03/06 02:29:35;;;;;;;51.40;46.70;;;6.60;99.90;;;;;;5208105;28;20032;-63
2023/03/06 02:32:06;;;;;;;49.67;44.92;;;6.20;99.90;;;;;;5207735;28;20029;-65
2023/03/06 02:34:37;;;;;;;47.72;43.40;;;6.00;99.90;;;;;;5207329;28;20056;-64
2023/03/06 02:37:09;;;;;;;50.92;46.53;;;6.30;99.90;;;;;;5207976;28;20439;-63
2023/03/06 02:39:52;;;;;;;51.67;47.08;;;6.30;99.90;;;;;;5207687;28;20033;-63
2023/03/06 02:42:27;;;;;;;50.63;45.90;;;6.60;99.90;;;;;;5207909;28;20047;-63
2023/03/06 02:45:01;;;;;;;51.28;46.30;;;5.90;99.90;;;;;;5207916;28;20025;-63
2023/03/06 02:47:32;;;;;;;52.65;47.92;;;6.20;99.90;;;;;;5206919;28;20025;-65
2023/03/06 02:50:03;;;;;;;51.45;46.67;;;6.00;99.90;;;;;;5207738;28;20493;-64
2023/03/06 02:52:34;;;;;;;53.97;49.25;;;6.00;99.90;;;;;;5207585;28;20033;-63
2023/03/06 02:55:05;;;;;;;51.00;46.05;;;5.90;99.90;;;;;;5206297;28;20022;-63
2023/03/06 02:57:36;;;;;;;49.35;44.65;;;6.00;99.90;;;;;;5207499;28;20179;-63
2023/03/06 03:00:08;;;;;;;51.08;46.40;;;6.00;99.90;;;;;;5207299;28;20105;-63
2023/03/06 03:02:39;;;;;;;52.95;47.80;;;6.10;99.90;;;;;;5207406;28;20021;-63
2023/03/06 03:05:10;;;;;;;53.38;48.38;;;5.80;99.90;;;;;;5207268;28;20029;-63
2023/03/06 03:07:41;;;;;;;49.38;44.88;;;5.90;99.90;;;;;;5207326;28;20014;-63
2023/03/06 03:10:13;;;;;;;48.50;43.88;;;5.70;99.90;;;;;;5207293;28;20034;-63
2023/03/06 03:12:44;;;;;;;49.60;44.75;;;6.10;99.90;;;;;;5207213;28;20700;-63
2023/03/06 03:15:16;;;;;;;50.88;46.00;;;5.90;99.90;;;;;;5207127;28;20029;-64
2023/03/06 03:17:46;;;;;;;50.65;46.03;;;6.30;99.90;;;;;;5207113;28;20544;-63
2023/03/06 03:20:20;;;;;;;47.22;42.83;;;6.00;99.90;;;;;;5207003;28;20037;-63
2023/03/06 03:22:53;;;;;;;50.60;45.58;;;6.20;99.90;;;;;;5206912;28;20022;-63
2023/03/06 03:25:25;;;;;;;48.78;44.22;;;6.10;99.90;;;;;;5205627;28;20051;-63
2023/03/06 03:27:55;;;;;;;51.92;47.13;;;6.00;99.90;;;;;;5206785;28;20041;-64
2023/03/06 03:30:26;;;;;;;52.70;47.92;;;6.30;99.90;;;;;;5206813;28;20127;-63
2023/03/06 03:32:57;;;;;;;50.10;45.70;;;6.60;99.90;;;;;;5206732;28;20021;-63
2023/03/06 03:35:28;;;;;;;48.28;44.17;;;6.50;99.90;;;;;;5206682;28;20021;-63
2023/03/06 03:37:59;;;;;;;48.83;44.53;;;6.60;99.90;;;;;;5206695;28;20056;-63
2023/03/06 03:40:30;;;;;;;50.33;45.90;;;6.60;99.90;;;;;;5206545;28;20095;-63
2023/03/06 03:43:01;;;;;;;51.67;47.20;;;6.70;99.90;;;;;;5206476;28;20029;-63
2023/03/06 03:45:32;;;;;;;48.60;44.17;;;6.40;99.90;;;;;;5206419;28;20140;-64
2023/03/06 03:48:03;;;;;;;48.05;43.80;;;6.50;99.90;;;;;;5206570;28;20056;-63
2023/03/06 03:50:34;;;;;;;47.60;43.28;;;6.30;99.90;;;;;;5206702;28;20013;-63
2023/03/06 03:53:05;;;;;;;47.22;42.63;;;6.10;99.90;;;;;;5206242;28;20030;-63
2023/03/06 03:55:36;;;;;;;47.67;43.13;;;6.00;99.90;;;;;;5206347;28;20017;-65
2023/03/06 03:58:06;;;;;;;49.40;44.67;;;6.00;99.90;;;;;;5206220;28;20030;-63
2023/03/06 04:00:37;;;;;;;49.35;44.90;;;6.30;99.90;;;;;;5206065;28;20155;-65
2023/03/06 04:03:08;;;;;;;47.20;42.70;;;6.40;99.90;;;;;;5206669;28;20508;-63
2023/03/06 04:05:39;;;;;;;48.30;43.88;;;6.50;99.90;;;;;;5206261;28;20029;-63
2023/03/06 04:08:10;;;;;;;49.65;45.08;;;6.60;99.90;;;;;;5206316;28;20100;-63
2023/03/06 04:10:40;;;;;;;48.50;44.10;;;6.70;99.90;;;;;;5206180;28;20022;-65
2023/03/06 04:13:11;;;;;;;47.10;42.90;;;6.60;99.90;;;;;;5206012;28;20045;-64
2023/03/06 04:15:42;;;;;;;47.53;42.92;;;6.60;99.90;;;;;;5206156;28;20106;-63
2023/03/06 04:18:15;;;;;;;46.67;42.45;;;6.10;99.90;;;;;;5206037;28;20033;-63
2023/03/06 04:20:47;;;;;;;49.78;44.97;;;6.40;99.90;;;;;;5206071;28;20029;-63
2023/03/06 04:23:19;;;;;;;54.65;49.38;;;6.60;99.90;;;;;;5204742;28;20485;-63
2023/03/06 04:25:50;;;;;;;64.22;57.70;;;6.60;99.90;;;;;;5205899;28;20033;-63
2023/03/06 04:28:21;;;;;;;56.83;51.00;;;6.30;99.90;;;;;;5205885;28;20079;-63
2023/03/06 04:30:52;;;;;;;55.50;49.92;;;6.00;99.90;;;;;;5205861;28;20468;-63
2023/03/06 04:33:22;;;;;;;48.30;43.58;;;5.90;99.90;;;;;;5205921;28;20029;-63
2023/03/06 04:35:53;;;;;;;50.13;45.35;;;6.00;99.90;;;;;;5205772;28;20061;-62
2023/03/06 04:38:24;;;;;;;54.00;48.53;;;6.30;99.90;;;;;;5205791;28;20373;-65
2023/03/06 04:40:55;;;;;;;53.25;47.72;;;6.70;99.90;;;;;;5205735;28;20052;-62
2023/03/06 04:43:26;;;;;;;59.25;53.17;;;6.70;99.90;;;;;;5205658;28;20587;-64
2023/03/06 04:45:57;;;;;;;56.83;51.13;;;6.70;99.90;;;;;;5205700;28;20417;-63
2023/03/06 04:48:28;;;;;;;64.68;57.88;;;6.70;99.90;;;;;;5205617;28;20024;-62
2023/03/06 04:50:59;;;;;;;53.45;48.72;;;6.70;99.90;;;;;;5205620;28;20025;-62
2023/03/06 04:53:30;;;;;;;53.15;48.20;;;6.50;99.90;;;;;;5204220;28;20029;-62
2023/03/06 04:56:00;;;;;;;56.78;51.38;;;6.50;99.90;;;;;;5206396;28;20032;-62
2023/03/06 04:58:31;;;;;;;69.50;61.78;;;6.70;99.90;;;;;;5209450;28;20073;-62
2023/03/06 05:01:02;;;;;;;53.92;48.42;;;6.50;99.90;;;;;;5209665;28;20746;-63
2023/03/06 05:03:33;;;;;;;56.58;51.03;;;6.20;99.90;;;;;;5209578;28;20028;-64
2023/03/06 05:06:04;;;;;;;56.58;50.92;;;6.10;99.90;;;;;;5209516;28;20478;-63
2023/03/06 05:08:35;;;;;;;55.22;49.92;;;6.10;99.90;;;;;;5209505;28;20018;-64
2023/03/06 05:11:06;;;;;;;53.40;47.97;;;6.30;99.90;;;;;;5209677;28;20029;-65
2023/03/06 05:13:37;;;;;;;55.15;49.83;;;6.30;99.90;;;;;;5209508;28;20028;-63
2023/03/06 05:16:08;;;;;;;55.35;49.90;;;6.60;99.90;;;;;;5209428;28;20065;-62
2023/03/06 05:18:39;;;;;;;55.33;49.80;;;6.50;99.90;;;;;;5209358;28;20477;-63
2023/03/06 05:21:10;;;;;;;57.45;51.83;;;6.70;99.90;;;;;;5209647;28;20036;-64
2023/03/06 05:23:40;;;;;;;58.85;53.03;;;6.50;99.90;;;;;;5209290;28;20108;-64
2023/03/06 05:26:13;;;;;;;56.53;51.00;;;6.20;99.90;;;;;;5209354;28;20402;-62
2023/03/06 05:28:44;;;;;;;57.33;51.70;;;6.60;99.90;;;;;;5209220;28;20041;-63
2023/03/06 05:31:15;;;;;;;55.53;49.60;;;6.80;99.90;;;;;;5209154;28;20087;-62
2023/03/06 05:33:46;;;;;;;57.75;52.28;;;6.50;99.90;;;;;;5209134;28;20033;-62
2023/03/06 05:36:17;;;;;;;57.33;51.80;;;6.70;99.90;;;;;;5209134;28;20022;-62
2023/03/06 05:38:48;;;;;;;57.85;52.20;;;6.60;99.90;;;;;;5209057;28;20060;-62
2023/03/06 05:41:19;;;;;;;61.30;54.88;;;6.70;99.90;;;;;;5208893;28;20036;-62
2023/03/06 05:43:51;;;;;;;62.33;55.90;;;6.50;99.90;;;;;;5208942;28;20045;-62
2023/03/06 05:46:22;;;;;;;61.17;54.83;;;6.70;99.90;;;;;;5208883;28;20129;-63
2023/03/06 05:48:55;;;;;;;63.38;56.85;;;6.70;99.90;;;;;;5208954;28;20529;-63
2023/03/06 05:51:26;;;;;;;61.25;55.13;;;6.70;99.90;;;;;;5208688;28;20430;-63
2023/03/06 05:53:56;;;;;;;65.35;58.55;;;6.70;99.90;;;;;;5208450;28;20028;-62
2023/03/06 05:56:28;;;;;;;57.47;51.50;;;6.50;99.90;;;;;;5208644;28;20032;-63
2023/03/06 05:58:59;;;;;;;59.47;53.13;;;6.30;99.90;;;;;;5208165;28;20053;-62
2023/03/06 06:01:30;;;;;;;58.58;52.63;;;6.50;99.90;;;;;;5208409;28;20489;-62
2023/03/06 06:04:01;;;;;;;53.08;48.13;;;6.40;99.90;;;;;;5208372;28;20072;-65
2023/03/06 06:06:31;;;;;;;49.50;44.42;;;6.50;99.90;;;;;;5208154;28;20068;-62
2023/03/06 06:09:03;;;;;;;52.05;47.40;;;6.80;99.90;;;;;;5206972;28;20033;-64
2023/03/06 06:11:34;;;;;;;51.63;46.85;;;6.80;99.90;;;;;;5208136;28;20018;-63
2023/03/06 06:14:05;;;;;;;54.35;49.33;;;7.00;99.90;;;;;;5208038;28;20022;-63
2023/03/06 06:16:36;;;;;;;54.17;48.92;;;7.00;99.90;;;;;;5208057;28;20032;-64
2023/03/06 06:19:06;;;;;;;58.80;52.75;;;7.00;99.90;;;;;;5206682;28;20052;-64
2023/03/06 06:21:37;;;;;;;60.83;54.40;;;6.70;99.90;;;;;;5208231;28;20591;-63
2023/03/06 06:24:08;;;;;;;61.95;55.38;;;6.90;99.90;;;;;;5208184;28;20040;-63
2023/03/06 06:26:39;;;;;;;59.58;53.72;;;7.10;99.90;;;;;;5207991;28;20097;-62
2023/03/06 06:29:12;;;;;;;59.95;53.65;;;7.30;99.90;;;;;;5207970;28;20476;-63
2023/03/06 06:31:43;;;;;;;56.20;50.38;;;7.20;99.90;;;;;;5208109;28;20497;-64
2023/03/06 06:34:13;;;;;;;58.05;51.97;;;7.40;99.90;;;;;;5208117;28;20026;-64
2023/03/06 06:36:44;;;;;;;53.60;48.13;;;7.30;99.90;;;;;;5208059;28;20018;-65
2023/03/06 06:39:18;;;;;;;53.55;48.30;;;7.20;99.90;;;;;;5206492;28;20063;-65
2023/03/06 06:41:51;;;;;;;55.47;49.80;;;7.30;99.90;;;;;;5206652;28;20465;-66
2023/03/06 06:44:24;;;;;;;51.90;46.50;;;7.30;99.90;;;;;;5207903;28;20013;-65
2023/03/06 06:47:00;;;;;;;51.75;46.35;;;7.20;99.90;;;;;;5207958;28;20025;-63
2023/03/06 06:49:32;;;;;;;61.65;54.38;;;7.40;99.90;;;;;;5207705;28;20543;-62
2023/03/06 06:52:04;;;;;;;90.72;70.03;;;7.50;99.90;;;;;;5207471;28;20029;-65
2023/03/06 06:54:35;;;;;;;100.40;77.95;;;7.40;99.90;;;;;;5207140;28;20108;-65
2023/03/06 06:57:05;;;;;;;111.80;82.93;;;7.60;99.90;;;;;;5207329;28;20138;-65
2023/03/06 06:59:37;;;;;;;126.80;92.20;;;7.70;99.90;;;;;;5207042;28;20041;-64
2023/03/06 07:02:14;;;;;;;124.50;92.88;;;7.70;99.90;;;;;;5206128;28;20095;-64
2023/03/06 07:04:45;;;;;;;121.65;90.28;;;7.80;99.90;;;;;;5206261;28;20576;-63
2023/03/06 07:07:16;;;;;;;129.38;92.00;;;7.90;99.90;;;;;;5207115;28;20025;-63
2023/03/06 07:09:47;;;;;;;117.47;88.55;;;7.80;99.90;;;;;;5207214;28;20047;-65
2023/03/06 07:12:18;;;;;;;126.18;94.43;;;8.00;99.90;;;;;;5207180;28;20061;-63
2023/03/06 07:14:48;;;;;;;114.13;86.15;;;7.90;99.90;;;;;;5207107;28;20079;-63
2023/03/06 07:17:19;;;;;;;94.72;74.85;;;7.90;99.90;;;;;;5207099;28;20531;-64
2023/03/06 07:19:50;;;;;;;68.95;61.17;;;8.30;99.90;;;;;;5206531;28;20041;-65
2023/03/06 07:22:21;;;;;;;59.55;52.95;;;8.30;99.90;;;;;;5206931;28;20155;-65
2023/03/06 07:24:52;;;;;;;53.88;48.45;;;8.40;99.90;;;;;;5206804;28;20091;-65
2023/03/06 07:27:24;;;;;;;48.40;42.85;;;8.50;99.90;;;;;;5206842;28;20064;-63
2023/03/06 07:29:55;;;;;;;48.17;43.17;;;8.70;99.90;;;;;;5206857;28;20021;-65
2023/03/06 07:32:26;;;;;;;45.53;41.22;;;8.70;99.90;;;;;;5205468;28;20382;-65
2023/03/06 07:34:57;;;;;;;43.97;39.72;;;8.80;99.90;;;;;;5206473;28;20057;-63
2023/03/06 07:37:28;;;;;;;44.85;39.50;;;8.70;99.90;;;;;;5205283;28;20072;-68
2023/03/06 07:39:59;;;;;;;48.03;43.25;;;8.60;99.90;;;;;;5206434;28;20486;-63
2023/03/06 07:42:29;;;;;;;46.28;41.97;;;8.70;99.90;;;;;;5206463;28;20068;-64
2023/03/06 07:45:03;;;;;;;52.13;47.00;;;8.90;99.90;;;;;;5206591;28;20527;-63
2023/03/06 07:47:34;;;;;;;47.60;42.80;;;9.00;99.90;;;;;;5206588;28;20432;-64
2023/03/06 07:50:06;;;;;;;47.92;43.22;;;9.20;99.90;;;;;;5206550;28;20053;-63
2023/03/06 07:52:38;;;;;;;45.38;40.95;;;8.80;99.90;;;;;;5206393;28;20132;-65
2023/03/06 07:55:11;;;;;;;41.35;37.63;;;9.20;99.90;;;;;;5206556;28;20060;-65
2023/03/06 07:57:43;;;;;;;46.45;41.90;;;9.20;99.90;;;;;;5206502;28;20095;-65
2023/03/06 08:00:15;;;;;;;46.80;42.25;;;9.20;99.90;;;;;;5206172;28;20056;-65
2023/03/06 08:02:48;;;;;;;47.83;43.13;;;9.40;99.90;;;;;;5206302;28;20044;-65
2023/03/06 08:05:19;;;;;;;46.42;41.95;;;9.40;99.90;;;;;;5206185;28;20031;-65
2023/03/06 08:07:51;;;;;;;46.15;41.25;;;9.30;99.90;;;;;;5206254;28;20014;-65
2023/03/06 08:10:30;;;;;;;48.13;44.00;;;9.30;99.90;;;;;;5206351;28;20117;-65
2023/03/06 08:13:01;;;;;;;40.40;36.80;;;9.40;99.90;;;;;;5204723;28;20024;-64
2023/03/06 08:15:32;;;;;;;37.53;34.10;;;9.40;99.90;;;;;;5206069;28;20468;-64
2023/03/06 08:18:03;;;;;;;35.13;31.90;;;9.90;99.90;;;;;;5205999;28;20022;-63
2023/03/06 08:20:33;;;;;;;36.78;33.55;;;10.10;99.90;;;;;;5205558;28;20424;-64
2023/03/06 08:23:04;;;;;;;35.20;32.20;;;10.20;99.90;;;;;;5205771;28;20096;-63
2023/03/06 08:25:35;;;;;;;36.22;33.03;;;10.40;99.90;;;;;;5205868;28;20121;-64
2023/03/06 08:28:06;;;;;;;36.03;33.03;;;10.20;99.90;;;;;;5205804;28;20096;-63
2023/03/06 08:30:37;;;;;;;37.38;34.28;;;10.40;99.90;;;;;;5203904;28;20041;-64
2023/03/06 08:33:08;;;;;;;37.20;34.22;;;10.10;99.90;;;;;;5205702;28;20101;-63
2023/03/06 08:35:39;;;;;;;34.25;31.73;;;10.10;99.90;;;;;;5205738;28;20064;-63
2023/03/06 08:38:09;;;;;;;37.20;34.20;;;10.10;99.90;;;;;;5204556;28;20032;-64
2023/03/06 08:40:41;;;;;;;35.38;32.50;;;10.60;99.90;;;;;;5205766;28;20037;-63
2023/03/06 08:43:11;;;;;;;35.08;32.22;;;10.30;99.90;;;;;;5205712;28;20026;-64
2023/03/06 08:45:42;;;;;;;36.58;33.67;;;10.90;99.90;;;;;;5205688;28;20033;-64
2023/03/06 08:48:13;;;;;;;35.70;32.75;;;11.20;99.90;;;;;;5205651;28;20037;-64
2023/03/06 08:50:44;;;;;;;35.67;32.83;;;11.20;99.90;;;;;;5204390;28;20022;-64
2023/03/06 08:53:15;;;;;;;41.03;38.22;;;11.60;99.90;;;;;;5205858;28;20028;-64
2023/03/06 08:55:46;;;;;;;44.92;41.42;;;12.00;99.90;;;;;;5205639;28;20053;-64
2023/03/06 08:58:17;;;;;;;42.60;39.50;;;11.40;99.90;;;;;;5205418;28;20065;-64
2023/03/06 09:00:50;;;;;;;42.55;39.40;;;11.60;99.90;;;;;;5205545;28;20069;-64
2023/03/06 09:03:22;;;;;;;44.90;41.75;;;11.60;99.90;;;;;;5205462;28;20018;-64
2023/03/06 09:05:53;;;;;;;46.05;42.72;;;11.80;99.90;;;;;;5205674;28;20049;-64
2023/03/06 09:08:24;;;;;;;44.80;41.42;;;11.60;99.90;;;;;;5205801;28;20423;-64
2023/03/06 09:10:54;;;;;;;48.63;44.97;;;11.30;99.90;;;;;;5205232;28;20057;-64
2023/03/06 09:13:25;;;;;;;42.30;39.00;;;11.40;99.90;;;;;;5205125;28;20104;-63
2023/03/06 09:15:56;;;;;;;39.55;36.58;;;11.10;99.90;;;;;;5205100;28;20079;-62
2023/03/06 09:18:28;;;;;;;41.33;38.28;;;11.10;99.90;;;;;;5205395;28;20496;-64
2023/03/06 09:20:59;;;;;;;39.00;36.20;;;11.10;99.90;;;;;;5205168;28;20099;-63
2023/03/06 09:23:30;;;;;;;38.53;35.75;;;11.20;99.90;;;;;;5205372;28;20029;-63
2023/03/06 09:26:01;;;;;;;37.30;34.55;;;11.10;99.90;;;;;;5205252;28;20102;-63
2023/03/06 09:28:34;;;;;;;40.78;37.60;;;11.10;99.90;;;;;;5205315;28;20087;-63
2023/03/06 09:31:11;;;;;;;41.60;38.65;;;11.50;99.90;;;;;;5205274;28;20026;-63
2023/03/06 09:33:42;;;;;;;41.78;38.70;;;11.60;99.90;;;;;;5205200;28;20026;-64
2023/03/06 09:36:18;;;;;;;41.20;38.10;;;11.70;99.90;;;;;;5205244;28;20124;-63
2023/03/06 09:38:50;;;;;;;43.10;39.67;;;11.60;99.90;;;;;;5205307;28;20033;-63
2023/03/06 09:41:36;;;;;;;47.28;43.78;;;11.70;99.90;;;;;;5204945;28;20041;-64
2023/03/06 09:44:20;;;;;;;43.20;39.70;;;11.90;99.90;;;;;;5208373;28;20057;-65
2023/03/06 09:47:09;;;;;;;44.80;41.40;;;11.70;99.90;;;;;;5207651;28;20034;-64
2023/03/06 09:49:44;;;;;;;46.75;43.38;;;11.60;99.90;;;;;;5208790;28;20029;-65
2023/03/06 09:52:24;;;;;;;47.13;43.47;;;11.70;99.90;;;;;;5208889;28;20081;-65
2023/03/06 09:55:03;;;;;;;48.90;45.20;;;11.50;99.90;;;;;;5208845;28;20104;-65
2023/03/06 09:58:00;;;;;;;44.00;40.67;;;11.50;99.90;;;;;;5208727;28;20021;-64
2023/03/06 10:00:44;;;;;;;49.78;45.83;;;11.40;99.90;;;;;;5208130;28;20068;-63
2023/03/06 10:03:57;;;;;;;45.58;41.78;;;11.60;99.90;;;;;;5207078;28;20381;-65
2023/03/06 10:06:38;;;;;;;43.80;40.65;;;11.80;99.90;;;;;;5185669;28;20033;-63
2023/03/06 10:10:01;;;;;;;46.92;43.45;;;11.60;99.90;;;;;;5185821;28;20046;-64
2023/03/06 10:12:37;;;;;;;45.25;41.55;;;11.60;99.90;;;;;;5163624;28;20076;-65
2023/03/06 10:15:22;;;;;;;44.58;41.13;;;11.70;99.90;;;;;;5208408;28;20036;-64
2023/03/06 10:17:55;;;;;;;44.30;40.85;;;11.80;99.90;;;;;;5208298;28;20373;-63
2023/03/06 10:20:33;;;;;;;43.70;40.45;;;11.40;99.90;;;;;;5206416;28;20359;-65
2023/03/06 10:23:37;;;;;;;38.50;35.30;;;11.20;99.90;;;;;;5208108;28;20068;-63
2023/03/06 10:26:12;;;;;;;39.95;36.90;;;11.20;99.90;;;;;;5208090;28;20026;-63
2023/03/06 10:29:00;;;;;;;44.25;40.47;;;11.00;99.90;;;;;;5208051;28;20038;-63
2023/03/06 10:31:32;;;;;;;41.65;38.20;;;11.20;99.90;;;;;;5208089;28;20611;-63
2023/03/06 10:34:28;;;;;;;41.85;38.05;;;11.20;99.90;;;;;;5207893;28;20025;-64
2023/03/06 10:37:08;;;;;;;40.85;37.17;;;11.10;99.90;;;;;;5208004;28;20030;-63
2023/03/06 10:39:38;;;;;;;43.80;40.03;;;11.40;99.90;;;;;;5207846;28;20037;-65
2023/03/06 10:42:09;;;;;;;42.92;39.28;;;11.40;99.90;;;;;;5207706;28;20056;-66
2023/03/06 10:44:40;;;;;;;46.40;42.58;;;11.50;99.90;;;;;;5207760;28;20507;-67
2023/03/06 10:47:28;;;;;;;48.78;44.78;;;11.80;99.90;;;;;;5207546;28;20481;-66
2023/03/06 10:50:02;;;;;;;46.65;43.03;;;11.80;99.90;;;;;;5207638;28;20473;-66
2023/03/06 10:52:34;;;;;;;42.72;39.50;;;11.70;99.90;;;;;;5207542;28;20029;-66
2023/03/06 10:55:25;;;;;;;52.88;48.45;;;11.70;99.90;;;;;;5206948;28;20507;-66
2023/03/06 10:57:56;;;;;;;46.28;42.53;;;11.80;99.90;;;;;;5207370;28;20026;-66
2023/03/06 11:00:36;;;;;;;49.08;45.20;;;11.80;99.90;;;;;;5207134;28;20049;-65
2023/03/06 11:03:22;;;;;;;46.47;42.65;;;11.50;99.90;;;;;;5207349;28;20021;-65
2023/03/06 11:06:09;;;;;;;46.40;42.40;;;11.50;99.90;;;;;;5207207;28;20033;-65
2023/03/06 11:08:42;;;;;;;43.05;39.40;;;11.60;99.90;;;;;;5207320;28;20026;-65
2023/03/06 11:11:21;;;;;;;46.30;42.22;;;11.80;99.90;;;;;;5207211;28;20029;-65
2023/03/06 11:13:57;;;;;;;47.75;43.90;;;11.90;99.90;;;;;;5207134;28;20056;-65
2023/03/06 11:16:29;;;;;;;47.40;43.33;;;11.80;99.90;;;;;;5207211;28;20079;-66
2023/03/06 11:19:04;;;;;;;50.45;46.25;;;12.20;99.90;;;;;;5206882;28;20036;-65
2023/03/06 11:21:38;;;;;;;73.28;67.63;;;12.90;99.90;;;;;;5206673;28;20041;-65
2023/03/06 11:24:18;;;;;;;60.47;55.78;;;12.80;99.90;;;;;;5206816;28;20053;-65
2023/03/06 11:26:58;;;;;;;59.50;54.47;;;13.60;99.90;;;;;;5206870;28;20381;-66
2023/03/06 11:29:39;;;;;;;61.17;56.45;;;13.40;99.90;;;;;;5206820;28;20068;-66
2023/03/06 11:32:21;;;;;;;59.33;54.47;;;13.00;99.90;;;;;;5206918;28;20151;-66
2023/03/06 11:34:58;;;;;;;60.42;55.65;;;12.90;99.90;;;;;;5206998;28;20033;-66
2023/03/06 11:37:52;;;;;;;61.85;57.08;;;12.40;99.90;;;;;;5206934;28;20025;-65
2023/03/06 11:40:39;;;;;;;64.07;58.90;;;12.60;99.90;;;;;;5206843;28;20041;-65
2023/03/06 11:43:29;;;;;;;61.65;56.92;;;12.60;99.90;;;;;;5206789;28;20025;-66
2023/03/06 11:46:21;;;;;;;55.70;51.53;;;12.90;99.90;;;;;;5206854;28;20159;-66
2023/03/06 11:49:00;;;;;;;63.47;58.67;;;12.30;99.90;;;;;;5206621;28;20021;-66
2023/03/06 11:51:38;;;;;;;54.83;50.75;;;12.00;99.90;;;;;;5206490;28;20026;-66
2023/03/06 11:54:12;;;;;;;52.88;48.88;;;12.40;99.90;;;;;;5206666;28;20030;-65
2023/03/06 11:56:53;;;;;;;56.60;52.10;;;12.60;99.90;;;;;;5206480;28;20377;-65
2023/03/06 12:00:04;;;;;;;53.67;49.65;;;12.60;99.90;;;;;;5206216;28;20544;-66
2023/03/06 12:02:58;;;;;;;49.45;45.35;;;12.50;99.90;;;;;;5205064;28;20107;-65
2023/03/06 12:05:45;;;;;;;47.47;43.38;;;12.70;99.90;;;;;;5200162;28;20060;-63
2023/03/06 12:08:48;;;;;;;45.17;41.58;;;12.70;99.90;;;;;;5206374;28;20025;-65
2023/03/06 12:11:22;;;;;;;50.35;46.35;;;12.80;99.90;;;;;;5204933;28;20021;-65
2023/03/06 12:14:21;;;;;;;49.63;45.60;;;12.60;99.90;;;;;;5205830;28;20060;-64
2023/03/06 12:17:05;;;;;;;46.55;42.78;;;12.60;99.90;;;;;;5202834;28;20482;-64
2023/03/06 12:19:45;;;;;;;45.78;42.08;;;12.40;99.90;;;;;;5205916;28;20041;-64
2023/03/06 12:22:32;;;;;;;49.22;45.03;;;12.40;99.90;;;;;;5205888;28;20037;-64
2023/03/06 12:25:35;;;;;;;50.22;46.33;;;12.50;99.90;;;;;;5206062;28;20108;-65
2023/03/06 12:28:27;;;;;;;46.85;43.00;;;12.30;99.90;;;;;;5205081;28;20038;-64
2023/03/06 12:31:08;;;;;;;54.70;49.70;;;12.60;99.90;;;;;;5203885;28;20037;-65
2023/03/06 12:34:12;;;;;;;49.80;45.30;;;12.40;99.90;;;;;;5205500;28;20091;-65
2023/03/06 12:37:02;;;;;;;55.58;50.60;;;12.70;99.90;;;;;;5199757;28;20441;-64
2023/03/06 12:39:48;;;;;;;64.97;58.45;;;12.70;99.90;;;;;;5185299;28;20050;-64
2023/03/06 12:42:34;;;;;;;48.53;44.55;;;12.90;99.90;;;;;;5185401;28;20034;-65
2023/03/06 12:45:27;;;;;;;47.63;43.63;;;13.50;99.90;;;;;;5185403;28;20026;-65
2023/03/06 12:47:58;;;;;;;55.63;50.45;;;13.90;99.90;;;;;;5185493;28;20053;-65
2023/03/06 12:53:29;;;;;;;;;;;13.70;99.90;;;;;;5528648;23;20050;-64
2023/03/06 12:56:01;;;;;;;;;;;13.30;99.90;;;;;;5185618;28;20439;-64
2023/03/06 12:58:53;;;;;;;43.15;39.35;;;13.10;99.90;;;;;;5185320;28;19912;-64
2023/03/06 13:01:44;;;;;;;63.63;56.70;;;13.20;99.90;;;;;;5184897;28;20041;-64
2023/03/06 13:04:46;;;;;;;45.47;41.47;;;12.80;99.90;;;;;;5164787;28;20031;-64
2023/03/06 13:07:59;;;;;;;43.40;40.00;;;13.00;99.90;;;;;;5164638;28;20030;-64
2023/03/06 13:10:32;;;;;;;43.92;40.28;;;13.00;99.90;;;;;;5179949;28;20434;-65
2023/03/06 13:13:22;;;;;;;51.53;46.30;;;12.90;99.90;;;;;;5163588;28;20034;-64
2023/03/06 13:16:14;;;;;;;48.00;43.60;;;13.20;99.90;;;;;;5164838;28;20390;-64